Time;durP1;ratioP1;P1;durP2;ratioP2;P2;SDS_P1;SDS_P2;PMS_P1;PMS_P2;Temp;Humidity;BMP_temperature;BMP_pressure;BME280_temperature;BME280_humidity;BME280_pressure;Samples;Min_cycle;Max_cycle;Signal;HPM_P1;HPM_P2
2021/01/27 00:00:33;;;;;;;7.40;4.53;;;;;;;-0.68;86.05;97016.16;5050220;28;20182;-69
2021/01/27 00:02:59;;;;;;;4.87;4.40;;;;;;;-0.72;86.41;97017.41;5050390;28;20194;-68
2021/01/27 00:05:31;;;;;;;6.70;4.80;;;;;;;-0.54;86.00;97015.59;5050067;28;20190;-68
2021/01/27 00:07:57;;;;;;;5.90;4.40;;;;;;;-0.55;86.11;97026.84;5050666;28;20193;-68
2021/01/27 00:10:22;;;;;;;5.63;4.30;;;;;;;-0.43;85.22;97028.22;5049335;28;20650;-68
2021/01/27 00:12:48;;;;;;;7.23;4.87;;;;;;;-0.43;85.96;97022.25;5053869;28;20256;-67
2021/01/27 00:15:24;;;;;;;8.47;5.30;;;;;;;-0.27;84.78;97022.34;5054956;28;20182;-69
2021/01/27 00:17:50;;;;;;;5.00;4.47;;;;;;;-0.46;86.10;97025.13;5054956;28;20174;-68
2021/01/27 00:20:18;;;;;;;5.80;4.90;;;;;;;-0.37;85.62;97021.63;5054259;28;20189;-73
2021/01/27 00:22:44;;;;;;;7.30;5.27;;;;;;;-0.43;85.96;97010.19;5053719;28;20658;-68
2021/01/27 00:25:12;;;;;;;5.83;5.00;;;;;;;-0.34;86.08;97015.41;5054812;28;20261;-67
2021/01/27 00:27:37;;;;;;;7.43;4.70;;;;;;;-0.26;85.49;97007.69;5053954;28;20330;-68
2021/01/27 00:30:12;;;;;;;5.30;4.80;;;;;;;-0.37;86.17;97001.03;5052748;28;20990;-68
2021/01/27 00:32:37;;;;;;;5.57;4.70;;;;;;;-0.39;86.42;96995.22;5052877;28;20261;-68
2021/01/27 00:35:05;;;;;;;5.53;4.70;;;;;;;-0.37;86.17;96987.34;5036119;28;20654;-70
2021/01/27 00:37:30;;;;;;;6.17;5.13;;;;;;;-0.30;86.08;96990.94;5053194;28;20186;-68
2021/01/27 00:39:55;;;;;;;8.83;5.03;;;;;;;-0.35;86.08;96986.25;5053999;28;20188;-67
2021/01/27 00:42:21;;;;;;;9.37;5.10;;;;;;;-0.29;85.96;96988.22;5053313;28;20190;-68
2021/01/27 00:44:46;;;;;;;6.17;4.97;;;;;;;-0.33;86.37;96980.94;5049419;28;20214;-68
2021/01/27 00:47:12;;;;;;;6.40;4.50;;;;;;;-0.37;86.28;96977.06;5044920;28;20210;-69
2021/01/27 00:49:38;;;;;;;8.90;5.37;;;;;;;-0.32;85.94;96979.97;5043162;28;20641;-69
2021/01/27 00:52:04;;;;;;;8.60;5.53;;;;;;;-0.47;86.36;96972.84;5045581;28;20614;-70
2021/01/27 00:54:29;;;;;;;6.27;5.07;;;;;;;-0.31;86.04;96972.09;5046374;28;20269;-69
2021/01/27 00:56:55;;;;;;;6.17;4.70;;;;;;;-0.42;86.25;96969.81;5045893;28;20260;-69
2021/01/27 00:59:20;;;;;;;5.83;5.10;;;;;;;-0.48;86.66;96966.06;5044816;28;20174;-72
2021/01/27 01:01:46;;;;;;;6.67;5.00;;;;;;;-0.53;86.65;96963.16;5043919;28;20190;-70
2021/01/27 01:04:11;;;;;;;6.93;5.17;;;;;;;-0.56;87.07;96955.72;5046896;28;20212;-69
2021/01/27 01:06:37;;;;;;;7.63;5.17;;;;;;;-0.37;86.29;96951.31;5031365;28;20230;-68
2021/01/27 01:09:03;;;;;;;6.83;4.87;;;;;;;-0.44;86.94;96941.63;5025765;28;20288;-69
2021/01/27 01:11:28;;;;;;;5.87;4.70;;;;;;;-0.52;87.38;96948.53;5042461;28;20209;-68
2021/01/27 01:13:56;;;;;;;6.53;5.00;;;;;;;-0.48;87.60;96949.81;5046641;28;20649;-68
2021/01/27 01:16:21;;;;;;;7.83;5.03;;;;;;;-0.49;87.54;96956.72;5040449;28;20189;-69
2021/01/27 01:18:47;;;;;;;8.13;5.10;;;;;;;-0.38;86.85;96954.84;5043888;28;20186;-70
2021/01/27 01:21:12;;;;;;;5.47;4.90;;;;;;;-0.27;86.47;96954.56;5046350;28;20208;-68
2021/01/27 01:23:38;;;;;;;8.87;5.67;;;;;;;-0.25;86.46;96950.91;5041323;28;20784;-68
2021/01/27 01:26:03;;;;;;;5.87;4.77;;;;;;;-0.34;86.52;96944.09;5046107;28;20216;-69
2021/01/27 01:28:29;;;;;;;8.13;4.83;;;;;;;-0.31;86.66;96953.28;5043177;28;20185;-68
2021/01/27 01:30:54;;;;;;;8.83;5.07;;;;;;;-0.38;87.11;96950.50;5042527;28;20266;-68
2021/01/27 01:33:25;;;;;;;7.83;5.20;;;;;;;-0.21;86.42;96953.97;5046167;28;20229;-75
2021/01/27 01:35:51;;;;;;;7.37;4.53;;;;;;;-0.38;86.99;96947.94;5052281;28;20182;-69
2021/01/27 01:38:17;;;;;;;12.87;5.03;;;;;;;-0.35;86.78;96937.34;5052389;28;20205;-69
2021/01/27 01:40:48;;;;;;;6.33;4.60;;;;;;;-0.32;86.50;96936.22;5052483;28;20232;-69
2021/01/27 01:43:20;;;;;;;7.23;4.60;;;;;;;-0.38;86.75;96929.09;5053125;28;20602;-69
2021/01/27 01:45:52;;;;;;;6.33;4.83;;;;;;;-0.38;86.91;96927.34;5053323;28;20197;-68
2021/01/27 01:48:29;;;;;;;5.20;4.40;;;;;;;-0.45;87.11;96910.91;5052325;28;20181;-75
2021/01/27 01:51:17;;;;;;;5.03;4.27;;;;;;;-0.48;87.36;96904.28;5052421;28;20202;-68
2021/01/27 01:53:46;;;;;;;8.17;4.97;;;;;;;-0.51;87.81;96908.97;5051321;28;20201;-69
2021/01/27 01:56:15;;;;;;;8.90;4.93;;;;;;;-0.50;87.71;96913.94;5052771;28;20269;-68
2021/01/27 01:58:40;;;;;;;6.43;4.30;;;;;;;-0.46;87.20;96917.03;5051622;28;20275;-68
2021/01/27 02:01:07;;;;;;;5.20;4.67;;;;;;;-0.43;87.32;96901.25;5052512;28;20225;-69
2021/01/27 02:03:34;;;;;;;8.53;5.00;;;;;;;-0.37;86.09;96899.81;4997838;28;20336;-71
2021/01/27 02:06:01;;;;;;;7.00;5.03;;;;;;;-0.43;86.94;96903.81;5051353;28;20189;-68
2021/01/27 02:08:28;;;;;;;6.80;4.60;;;;;;;-0.33;86.49;96903.69;5051974;28;20178;-69
2021/01/27 02:10:54;;;;;;;6.93;4.50;;;;;;;-0.27;86.22;96893.59;5050869;28;20178;-68
2021/01/27 02:13:34;;;;;;;6.27;4.67;;;;;;;-0.21;86.25;96881.84;5034498;28;20309;-74
2021/01/27 02:16:05;;;;;;;6.50;4.60;;;;;;;-0.21;85.82;96879.28;5052372;28;20236;-68
2021/01/27 02:18:52;;;;;;;5.17;4.43;;;;;;;-0.34;86.56;96874.59;5051899;28;20170;-68
2021/01/27 02:21:17;;;;;;;5.90;4.67;;;;;;;-0.37;86.55;96874.88;5052577;28;20178;-68
2021/01/27 02:24:21;;;;;;;6.63;4.47;;;;;;;-0.30;86.09;96872.50;5051478;28;20209;-69
2021/01/27 02:27:05;;;;;;;7.07;4.73;;;;;;;-0.40;86.12;96871.81;5025932;28;20197;-68
2021/01/27 02:30:08;;;;;;;6.23;4.50;;;;;;;-0.50;86.93;96870.16;5051605;28;20202;-68
2021/01/27 02:33:04;;;;;;;7.13;4.70;;;;;;;-0.60;86.99;96877.22;5037613;28;20193;-68
2021/01/27 02:35:47;;;;;;;8.07;5.00;;;;;;;-0.54;87.10;96868.06;5050849;28;20216;-68
2021/01/27 02:38:25;;;;;;;6.80;5.13;;;;;;;-0.53;86.56;96861.97;5034168;28;20235;-68
2021/01/27 02:41:30;;;;;;;5.80;4.70;;;;;;;-0.59;87.20;96867.72;5051175;28;20186;-69
2021/01/27 02:44:00;;;;;;;6.30;4.57;;;;;;;-0.60;86.93;96879.78;5015006;28;20252;-68
2021/01/27 02:46:39;;;;;;;7.47;4.83;;;;;;;-0.59;87.50;96872.88;5034972;28;20219;-69
2021/01/27 02:49:19;;;;;;;8.00;4.57;;;;;;;-0.62;87.42;96866.28;5051154;28;20224;-72
2021/01/27 02:51:53;;;;;;;10.23;4.47;;;;;;;-0.58;86.98;96854.72;5051235;28;20190;-67
2021/01/27 02:54:27;;;;;;;5.57;4.23;;;;;;;-0.69;87.94;96857.56;5051522;28;20272;-67
2021/01/27 02:57:06;;;;;;;5.60;4.60;;;;;;;-0.60;87.27;96864.34;5050712;28;20638;-67
2021/01/27 02:59:56;;;;;;;5.20;4.70;;;;;;;-0.65;87.36;96863.19;5050682;28;20204;-68
2021/01/27 03:02:50;;;;;;;5.33;4.30;;;;;;;-0.59;87.63;96863.38;5048549;28;20190;-73
2021/01/27 03:05:32;;;;;;;7.47;5.03;;;;;;;-0.66;87.67;96869.28;5051491;28;20190;-67
2021/01/27 03:08:09;;;;;;;4.93;4.43;;;;;;;-0.65;87.56;96860.63;5051562;28;20257;-68
2021/01/27 03:10:46;;;;;;;4.90;4.30;;;;;;;-0.67;87.73;96857.41;5049996;28;20174;-67
2021/01/27 03:13:12;;;;;;;6.37;4.60;;;;;;;-0.58;87.17;96844.41;5051230;28;20180;-70
2021/01/27 03:15:38;;;;;;;6.30;4.40;;;;;;;-0.59;87.12;96847.13;5033105;28;20194;-69
2021/01/27 03:18:08;;;;;;;6.73;4.40;;;;;;;-0.57;87.10;96848.59;5050524;28;20190;-69
2021/01/27 03:20:37;;;;;;;9.10;4.87;;;;;;;-0.56;87.30;96855.34;5050315;28;20662;-70
2021/01/27 03:23:12;;;;;;;4.97;4.47;;;;;;;-0.53;87.17;96856.81;5051430;28;20209;-67
2021/01/27 03:25:46;;;;;;;7.90;4.50;;;;;;;-0.45;86.23;96841.41;5048959;28;20195;-67
2021/01/27 03:28:33;;;;;;;5.40;4.50;;;;;;;-0.46;86.40;96845.75;5051697;28;20181;-66
2021/01/27 03:30:58;;;;;;;9.23;3.87;;;;;;;-0.50;86.79;96846.19;5036462;28;20231;-67
2021/01/27 03:33:35;;;;;;;5.63;4.27;;;;;;;-0.43;85.80;96842.84;5049289;28;20226;-75
2021/01/27 03:36:03;;;;;;;7.70;4.43;;;;;;;-0.43;86.04;96840.28;5049892;28;20178;-69
2021/01/27 03:38:35;;;;;;;4.83;4.10;;;;;;;-0.39;86.04;96842.56;5050338;28;20722;-70
2021/01/27 03:41:09;;;;;;;4.40;4.00;;;;;;;-0.44;85.71;96830.94;5033154;28;20554;-69
2021/01/27 03:44:16;;;;;;;5.53;3.97;;;;;;;-0.42;85.94;96829.03;5049962;28;20239;-70
2021/01/27 03:46:53;;;;;;;4.80;4.30;;;;;;;-0.57;86.29;96827.22;5039635;28;20189;-69
2021/01/27 03:49:24;;;;;;;4.17;3.77;;;;;;;-0.47;85.73;96827.88;5054770;28;20177;-69
2021/01/27 03:52:00;;;;;;;4.40;4.00;;;;;;;-0.48;85.92;96832.22;5055137;28;20239;-67
2021/01/27 03:54:31;;;;;;;5.77;3.70;;;;;;;-0.52;86.18;96830.94;5039187;28;20235;-68
2021/01/27 03:57:03;;;;;;;5.40;4.43;;;;;;;-0.47;85.81;96818.38;5055312;28;20231;-66
2021/01/27 03:59:29;;;;;;;5.33;4.37;;;;;;;-0.41;84.78;96819.53;5036776;28;20711;-67
2021/01/27 04:01:57;;;;;;;4.43;3.83;;;;;;;-0.54;85.70;96808.88;5053452;28;20272;-66
2021/01/27 04:04:27;;;;;;;5.50;4.03;;;;;;;-0.54;85.61;96817.41;5054249;28;20202;-73
2021/01/27 04:06:52;;;;;;;5.43;4.00;;;;;;;-0.55;85.70;96814.97;5054980;28;20186;-67
2021/01/27 04:09:18;;;;;;;5.37;3.87;;;;;;;-0.48;84.88;96814.19;5054830;28;20189;-67
2021/01/27 04:11:44;;;;;;;4.70;3.50;;;;;;;-0.51;85.36;96811.16;5053368;28;20439;-68
2021/01/27 04:14:10;;;;;;;7.23;4.20;;;;;;;-0.39;84.98;96811.66;5054938;28;20644;-67
2021/01/27 04:16:36;;;;;;;6.27;3.90;;;;;;;-0.30;84.06;96814.09;5036627;28;20184;-67
2021/01/27 04:19:04;;;;;;;4.37;3.70;;;;;;;-0.40;84.19;96810.84;5036955;28;20186;-67
2021/01/27 04:21:30;;;;;;;5.13;3.87;;;;;;;-0.39;84.73;96796.22;5052665;28;20224;-67
2021/01/27 04:23:55;;;;;;;6.33;3.67;;;;;;;-0.40;84.11;96810.03;5054178;28;20279;-68
2021/01/27 04:26:21;;;;;;;4.57;3.57;;;;;;;-0.40;84.38;96797.97;5036648;28;20214;-73
2021/01/27 04:28:50;;;;;;;4.43;3.50;;;;;;;-0.34;84.14;96783.66;5053344;28;20654;-67
2021/01/27 04:31:15;;;;;;;6.73;4.27;;;;;;;-0.30;83.97;96772.88;5052639;28;20186;-68
2021/01/27 04:33:41;;;;;;;8.97;3.97;;;;;;;-0.07;83.09;96767.91;5051803;28;20225;-67
2021/01/27 04:36:07;;;;;;;4.83;3.10;;;;;;;-0.13;83.24;96758.25;5054455;28;20680;-68
2021/01/27 04:38:33;;;;;;;4.90;3.87;;;;;;;-0.09;83.17;96752.63;5053111;28;20186;-68
2021/01/27 04:40:59;;;;;;;4.77;3.70;;;;;;;-0.18;83.71;96745.06;5052883;28;20231;-68
2021/01/27 04:43:40;;;;;;;4.87;3.90;;;;;;;-0.13;83.99;96732.50;5053562;28;20675;-72
2021/01/27 04:46:27;;;;;;;4.07;3.70;;;;;;;-0.18;83.74;96712.38;5054405;28;20182;-67
2021/01/27 04:49:06;;;;;;;6.80;3.90;;;;;;;-0.13;83.15;96719.63;5053665;28;20227;-68
2021/01/27 04:51:40;;;;;;;5.53;4.10;;;;;;;-0.24;84.05;96727.66;5035380;28;20272;-68
2021/01/27 04:54:18;;;;;;;6.53;4.73;;;;;;;-0.19;83.26;96730.56;5054155;28;20192;-67
2021/01/27 04:57:05;;;;;;;6.07;4.50;;;;;;;-0.25;83.76;96723.47;5051640;28;20178;-67
2021/01/27 04:59:44;;;;;;;5.83;4.37;;;;;;;-0.26;83.25;96724.44;5051336;28;20238;-67
2021/01/27 05:02:47;;;;;;;5.80;4.00;;;;;;;-0.33;83.72;96724.28;5053367;28;20178;-68
2021/01/27 05:05:18;;;;;;;5.37;3.20;;;;;;;-0.29;83.66;96723.00;5021015;28;20215;-68
2021/01/27 05:07:43;;;;;;;4.43;3.53;;;;;;;-0.12;83.45;96724.63;5052919;28;20710;-67
2021/01/27 05:10:14;;;;;;;3.73;3.40;;;;;;;-0.15;83.55;96729.28;5052349;28;20194;-67
2021/01/27 05:12:43;;;;;;;4.00;3.20;;;;;;;-0.12;83.36;96724.63;5052040;28;20510;-67
2021/01/27 05:15:10;;;;;;;4.73;3.50;;;;;;;-0.12;83.22;96724.63;5053334;28;20191;-68
2021/01/27 05:17:41;;;;;;;5.50;3.40;;;;;;;-0.23;83.14;96714.63;5034712;28;20291;-68
2021/01/27 05:20:07;;;;;;;4.37;3.50;;;;;;;-0.15;82.91;96708.66;5053134;28;20260;-68
2021/01/27 05:22:33;;;;;;;5.30;3.63;;;;;;;-0.13;82.57;96696.44;5052136;28;20221;-68
2021/01/27 05:24:59;;;;;;;5.00;3.40;;;;;;;-0.07;82.85;96688.88;5053071;28;20640;-68
2021/01/27 05:27:36;;;;;;;4.50;3.60;;;;;;;-0.11;82.11;96687.56;5052782;28;20201;-73
2021/01/27 05:30:23;;;;;;;3.73;3.33;;;;;;;0.01;82.00;96675.16;5052974;28;20205;-69
2021/01/27 05:32:51;;;;;;;3.10;2.80;;;;;;;-0.05;81.98;96688.69;5053036;28;20584;-67
2021/01/27 05:35:32;;;;;;;3.30;3.00;;;;;;;-0.01;81.44;96685.66;5035680;28;20517;-67
2021/01/27 05:38:02;;;;;;;3.77;3.00;;;;;;;0.04;81.01;96676.63;5053130;28;20253;-68
2021/01/27 05:40:35;;;;;;;4.43;2.90;;;;;;;-0.15;82.29;96686.28;5052607;28;20602;-68
2021/01/27 05:43:25;;;;;;;3.80;3.20;;;;;;;-0.14;82.67;96689.69;5052495;28;20796;-70
2021/01/27 05:45:51;;;;;;;5.43;3.30;;;;;;;-0.18;83.23;96672.94;5034859;28;20178;-68
2021/01/27 05:48:35;;;;;;;6.27;3.63;;;;;;;-0.06;82.33;96669.84;5053057;28;20186;-67
2021/01/27 05:51:01;;;;;;;5.97;3.50;;;;;;;-0.17;82.43;96674.56;5052880;28;20212;-70
2021/01/27 05:53:29;;;;;;;4.07;3.37;;;;;;;-0.17;82.22;96665.03;5052443;28;20225;-73
2021/01/27 05:56:28;;;;;;;3.87;3.47;;;;;;;-0.09;81.85;96666.81;5053053;28;20174;-68
2021/01/27 05:58:54;;;;;;;5.43;3.63;;;;;;;-0.17;82.45;96657.31;5052361;28;20529;-68
2021/01/27 06:01:42;;;;;;;4.03;3.07;;;;;;;-0.10;82.64;96663.44;5052412;28;20220;-70
2021/01/27 06:04:10;;;;;;;3.43;3.10;;;;;;;0.06;81.17;96662.59;5052666;28;20271;-68
2021/01/27 06:06:37;;;;;;;3.70;3.40;;;;;;;0.05;80.87;96671.31;5051275;28;20328;-68
2021/01/27 06:09:06;;;;;;;3.77;3.00;;;;;;;-0.06;81.01;96676.81;5051554;28;20189;-68
2021/01/27 06:11:32;;;;;;;4.00;3.13;;;;;;;-0.14;81.22;96679.38;5050483;28;20580;-68
2021/01/27 06:14:06;;;;;;;4.60;2.97;;;;;;;-0.02;81.11;96672.94;5052345;28;20189;-67
2021/01/27 06:16:45;;;;;;;5.97;3.50;;;;;;;-0.04;81.02;96675.66;5051750;28;20649;-67
2021/01/27 06:19:18;;;;;;;6.63;3.60;;;;;;;-0.02;81.03;96663.44;5036931;28;20249;-68
2021/01/27 06:22:07;;;;;;;4.10;3.20;;;;;;;-0.10;81.25;96657.47;5051553;28;20182;-68
2021/01/27 06:24:58;;;;;;;4.03;3.10;;;;;;;-0.10;81.47;96652.31;5050052;28;20212;-68
2021/01/27 06:27:32;;;;;;;3.77;3.20;;;;;;;-0.03;81.25;96656.66;5051016;28;20263;-73
2021/01/27 06:30:16;;;;;;;3.97;3.17;;;;;;;0.00;87.70;96653.75;5050840;28;20262;-74
2021/01/27 06:32:48;;;;;;;3.90;3.50;;;;;;;0.07;83.04;96659.06;5049963;28;20190;-68
2021/01/27 06:35:31;;;;;;;4.70;3.03;;;;;;;0.09;82.08;96657.13;5052028;28;20277;-66
2021/01/27 06:38:29;;;;;;;3.10;2.80;;;;;;;0.26;80.91;96650.16;5052329;28;20224;-67
2021/01/27 06:41:23;;;;;;;5.40;3.20;;;;;;;0.10;81.05;96660.50;5035593;28;20189;-67
2021/01/27 06:44:15;;;;;;;3.47;2.83;;;;;;;0.14;80.30;96660.00;5033606;28;20674;-66
2021/01/27 06:46:55;;;;;;;3.53;2.90;;;;;;;0.13;80.31;96655.00;5050749;28;20208;-67
2021/01/27 06:49:26;;;;;;;3.33;2.80;;;;;;;0.23;79.74;96665.94;5039072;28;20268;-67
2021/01/27 06:52:17;;;;;;;3.83;3.00;;;;;;;0.14;79.71;96666.94;5046516;28;20182;-67
2021/01/27 06:55:11;;;;;;;3.53;3.00;;;;;;;0.22;78.68;96656.63;5042993;28;20162;-66
2021/01/27 06:58:10;;;;;;;4.90;3.10;;;;;;;0.21;78.72;96660.16;5040573;28;20269;-69
2021/01/27 07:01:02;;;;;;;4.67;2.93;;;;;;;0.23;78.17;96661.59;5040024;28;20252;-66
2021/01/27 07:03:53;;;;;;;2.63;2.43;;;;;;;0.25;77.97;96658.84;5047477;28;20297;-72
2021/01/27 07:06:49;;;;;;;3.20;2.90;;;;;;;0.29;77.63;96654.97;5037438;28;20681;-77
2021/01/27 07:09:39;;;;;;;3.60;2.40;;;;;;;0.32;77.76;96658.03;5050314;28;20182;-76
2021/01/27 07:12:10;;;;;;;3.33;2.80;;;;;;;0.36;77.73;96655.94;5034935;28;20224;-76
2021/01/27 07:14:45;;;;;;;3.70;2.67;;;;;;;0.31;78.06;96665.94;5050404;28;20269;-73
2021/01/27 07:17:48;;;;;;;3.90;2.63;;;;;;;0.45;76.28;96662.66;5051147;28;20192;-76
2021/01/27 07:20:19;;;;;;;3.80;3.10;;;;;;;0.33;77.29;96664.81;5050915;28;20682;-76
2021/01/27 07:23:00;;;;;;;5.10;3.00;;;;;;;0.52;76.82;96668.75;5048758;28;20945;-76
2021/01/27 07:25:31;;;;;;;9.47;4.20;;;;;;;0.33;77.80;96669.16;5050396;28;20178;-74
2021/01/27 07:28:42;;;;;;;5.13;3.30;;;;;;;0.43;77.14;96672.34;5051126;28;20190;-73
2021/01/27 07:31:19;;;;;;;4.90;3.10;;;;;;;0.37;77.36;96683.31;5015450;28;20293;-73
2021/01/27 07:33:52;;;;;;;3.83;3.20;;;;;;;0.41;78.08;96684.59;5049789;28;20312;-74
2021/01/27 07:36:32;;;;;;;3.83;2.80;;;;;;;0.46;77.72;96689.25;5051519;28;20244;-75
2021/01/27 07:39:02;;;;;;;3.17;2.80;;;;;;;0.38;78.54;96703.78;5051248;28;20180;-75
2021/01/27 07:41:50;;;;;;;3.30;3.00;;;;;;;0.56;77.99;96697.59;5049600;28;20255;-73
2021/01/27 07:44:18;;;;;;;5.07;3.20;;;;;;;0.64;78.05;96702.72;5041128;28;20268;-74
2021/01/27 07:46:53;;;;;;;3.23;2.90;;;;;;;0.70;78.42;96702.06;5049186;28;20182;-74
2021/01/27 07:49:31;;;;;;;4.27;3.30;;;;;;;0.67;79.19;96694.66;5047804;28;20173;-75
2021/01/27 07:52:06;;;;;;;3.97;3.13;;;;;;;0.74;78.79;96696.41;5050197;28;20174;-75
2021/01/27 07:54:41;;;;;;;4.33;2.93;;;;;;;0.74;79.83;96696.41;5049684;28;20630;-74
2021/01/27 07:57:28;;;;;;;4.37;3.00;;;;;;;0.67;80.84;96695.44;5050685;28;20631;-75
2021/01/27 08:00:06;;;;;;;4.50;2.90;;;;;;;0.55;81.63;96689.06;5049041;28;20666;-75
2021/01/27 08:02:37;;;;;;;4.33;3.00;;;;;;;0.63;82.02;96690.78;5049693;28;20189;-74
2021/01/27 08:05:08;;;;;;;4.67;3.27;;;;;;;0.63;82.38;96695.94;5033278;28;20181;-75
2021/01/27 08:07:40;;;;;;;3.57;3.10;;;;;;;0.78;82.24;96695.06;5049715;28;20178;-74
2021/01/27 08:10:13;;;;;;;3.13;2.80;;;;;;;0.76;83.13;96699.63;5050885;28;20178;-75
2021/01/27 08:12:50;;;;;;;3.77;3.10;;;;;;;0.80;82.76;96707.81;5048334;28;20177;-75
2021/01/27 08:15:25;;;;;;;3.73;3.00;;;;;;;0.82;83.17;96708.47;5050130;28;20200;-75
2021/01/27 08:17:59;;;;;;;3.60;3.30;;;;;;;0.72;84.41;96708.66;5048408;28;20235;-77
2021/01/27 08:20:39;;;;;;;3.40;3.00;;;;;;;0.72;85.01;96715.59;5050401;28;20182;-75
2021/01/27 08:23:29;;;;;;;5.03;3.17;;;;;;;0.66;84.98;96729.16;5050671;28;20283;-74
2021/01/27 08:26:06;;;;;;;4.13;2.80;;;;;;;0.80;84.61;96712.97;5049170;28;20264;-72
2021/01/27 08:28:38;;;;;;;2.97;2.77;;;;;;;0.72;85.37;96716.41;5049669;28;20339;-72
2021/01/27 08:31:07;;;;;;;3.43;2.70;;;;;;;0.69;85.89;96709.00;5049001;28;20178;-73
2021/01/27 08:33:41;;;;;;;2.83;2.60;;;;;;;0.65;86.58;96720.63;5051901;28;20222;-71
2021/01/27 08:36:10;;;;;;;3.63;3.13;;;;;;;0.73;85.96;96717.19;5032579;28;20655;-72
2021/01/27 08:38:40;;;;;;;4.40;3.07;;;;;;;0.73;86.14;96722.34;5052860;28;20181;-73
2021/01/27 08:41:09;;;;;;;4.43;3.13;;;;;;;0.71;87.23;96714.00;5054236;28;20197;-69
2021/01/27 08:43:52;;;;;;;5.67;3.70;;;;;;;0.69;87.17;96710.75;5053149;28;20266;-68
2021/01/27 08:46:25;;;;;;;5.20;3.07;;;;;;;0.75;87.46;96713.47;5053828;28;20181;-69
2021/01/27 08:48:52;;;;;;;3.43;3.13;;;;;;;0.74;87.58;96717.03;5046142;28;20244;-68
2021/01/27 08:51:44;;;;;;;3.13;2.83;;;;;;;0.70;87.59;96709.78;5044009;28;20966;-68
2021/01/27 08:54:47;;;;;;;3.50;3.20;;;;;;;0.78;86.87;96715.72;5043731;28;20643;-67
2021/01/27 08:57:18;;;;;;;3.20;2.70;;;;;;;0.60;87.67;96712.56;5052340;28;20276;-68
2021/01/27 09:00:05;;;;;;;5.00;3.40;;;;;;;0.78;87.41;96707.19;5052951;28;20669;-68
2021/01/27 09:02:49;;;;;;;6.43;3.30;;;;;;;0.77;87.31;96698.66;5052756;28;20186;-68
2021/01/27 09:05:33;;;;;;;5.20;3.03;;;;;;;0.83;86.60;96697.19;5053256;28;20268;-68
2021/01/27 09:07:59;;;;;;;7.97;3.77;;;;;;;0.89;87.24;96701.66;5050854;28;20193;-67
2021/01/27 09:10:31;;;;;;;4.10;3.67;;;;;;;0.90;87.82;96694.72;5053150;28;20181;-67
2021/01/27 09:12:56;;;;;;;7.43;3.93;;;;;;;0.89;87.56;96695.69;5052420;28;20178;-69
2021/01/27 09:15:27;;;;;;;5.97;3.87;;;;;;;0.82;88.18;96695.56;5053137;28;20732;-68
2021/01/27 09:17:56;;;;;;;4.20;3.77;;;;;;;0.78;88.81;96702.81;5052472;28;20261;-68
2021/01/27 09:20:26;;;;;;;5.27;3.93;;;;;;;0.82;86.97;96698.94;5053014;28;20283;-68
2021/01/27 09:23:01;;;;;;;6.50;4.03;;;;;;;0.79;88.03;96695.88;5052458;28;20194;-69
2021/01/27 09:25:27;;;;;;;3.70;3.40;;;;;;;0.57;88.77;96688.88;5052830;28;20222;-68
2021/01/27 09:28:00;;;;;;;4.63;3.50;;;;;;;0.65;88.45;96694.03;5051628;28;20186;-69
2021/01/27 09:30:26;;;;;;;6.17;3.80;;;;;;;0.78;88.08;96696.88;5052260;28;20186;-69
2021/01/27 09:33:07;;;;;;;4.83;3.60;;;;;;;0.69;88.55;96690.13;5051952;28;20293;-69
2021/01/27 09:35:32;;;;;;;4.03;3.37;;;;;;;0.65;88.31;96691.44;5051873;28;20204;-69
2021/01/27 09:38:08;;;;;;;5.13;3.83;;;;;;;0.63;88.57;96688.22;5051710;28;20212;-68
2021/01/27 09:40:40;;;;;;;4.03;3.60;;;;;;;0.73;87.95;96675.91;5051815;28;20207;-68
2021/01/27 09:43:16;;;;;;;6.27;3.60;;;;;;;0.53;88.94;96680.69;5052404;28;20206;-68
2021/01/27 09:45:48;;;;;;;5.70;3.63;;;;;;;0.51;89.21;96680.03;5050938;28;20651;-68
2021/01/27 09:48:17;;;;;;;5.47;3.40;;;;;;;0.47;89.10;96680.53;5052456;28;20185;-68
2021/01/27 09:50:50;;;;;;;5.63;3.43;;;;;;;0.40;89.58;96672.66;5051105;28;20186;-68
2021/01/27 09:53:26;;;;;;;4.53;2.70;;;;;;;0.47;89.41;96668.44;5052770;28;20174;-68
2021/01/27 09:55:53;;;;;;;3.23;2.67;;;;;;;0.35;89.72;96664.63;5051183;28;20170;-68
2021/01/27 09:58:19;;;;;;;2.90;2.53;;;;;;;0.43;90.03;96667.19;5052506;28;20647;-68
2021/01/27 10:00:45;;;;;;;3.77;3.00;;;;;;;0.48;90.02;96670.06;5051422;28;20186;-68
2021/01/27 10:03:44;;;;;;;3.03;2.73;;;;;;;0.41;90.40;96656.22;5051990;28;20213;-68
2021/01/27 10:06:49;;;;;;;2.97;2.67;;;;;;;0.36;91.35;96658.50;5032208;28;20540;-69
2021/01/27 10:09:31;;;;;;;3.87;2.97;;;;;;;0.38;90.75;96649.66;4985274;28;20222;-68
2021/01/27 10:12:10;;;;;;;3.80;2.73;;;;;;;0.44;90.88;96644.78;5036597;28;20221;-68
2021/01/27 10:14:39;;;;;;;4.37;2.90;;;;;;;0.47;90.38;96639.28;5034638;28;20179;-70
2021/01/27 10:17:09;;;;;;;4.07;2.47;;;;;;;0.42;90.91;96637.22;5050764;28;20838;-69
2021/01/27 10:19:50;;;;;;;5.13;2.63;;;;;;;0.46;90.28;96632.53;5050433;28;20597;-68
2021/01/27 10:22:35;;;;;;;5.50;2.67;;;;;;;0.35;91.15;96616.47;5051114;28;20219;-68
2021/01/27 10:25:22;;;;;;;4.33;2.47;;;;;;;0.48;91.07;96622.84;5042318;28;20570;-68
2021/01/27 10:28:13;;;;;;;4.73;2.93;;;;;;;0.52;90.87;96626.69;5051154;28;20272;-68
2021/01/27 10:30:38;;;;;;;4.33;2.40;;;;;;;0.37;91.47;96624.84;5032121;28;20288;-68
2021/01/27 10:33:04;;;;;;;3.10;2.57;;;;;;;0.46;92.08;96625.59;5051449;28;20320;-69
2021/01/27 10:35:32;;;;;;;3.27;2.50;;;;;;;0.57;91.03;96621.84;5051605;28;20542;-68
2021/01/27 10:38:00;;;;;;;2.70;2.40;;;;;;;0.57;91.15;96614.91;5050755;28;20178;-68
2021/01/27 10:40:27;;;;;;;3.43;2.77;;;;;;;0.59;91.51;96614.75;5037388;28;20192;-68
2021/01/27 10:42:57;;;;;;;3.70;3.20;;;;;;;0.57;90.96;96620.06;5032990;28;20225;-70
2021/01/27 10:45:23;;;;;;;4.57;2.80;;;;;;;0.69;90.83;96617.91;5051191;28;20186;-68
2021/01/27 10:48:09;;;;;;;5.10;2.97;;;;;;;0.63;90.67;96616.81;5050704;28;20173;-68
2021/01/27 10:50:38;;;;;;;4.53;3.43;;;;;;;0.67;90.52;96601.84;5050858;28;20263;-67
2021/01/27 10:53:05;;;;;;;4.70;3.37;;;;;;;0.76;90.40;96611.13;5051375;28;20189;-69
2021/01/27 10:55:36;;;;;;;5.13;4.63;;;;;;;0.65;90.72;96612.31;5051053;28;20178;-69
2021/01/27 10:58:13;;;;;;;3.87;3.33;;;;;;;0.71;90.68;96605.66;5051507;28;20192;-68
2021/01/27 11:00:39;;;;;;;5.17;3.87;;;;;;;0.66;91.17;96608.75;5050423;28;20643;-67
2021/01/27 11:03:06;;;;;;;6.57;4.53;;;;;;;0.74;91.36;96602.75;5051217;28;20216;-70
2021/01/27 11:05:32;;;;;;;4.80;4.10;;;;;;;0.76;90.31;96618.84;5043030;28;20189;-70
2021/01/27 11:07:59;;;;;;;6.87;3.97;;;;;;;0.75;90.33;96618.06;5051029;28;20212;-69
2021/01/27 11:10:25;;;;;;;6.70;4.13;;;;;;;0.77;90.18;96608.38;5051164;28;20265;-69
2021/01/27 11:12:50;;;;;;;4.60;4.00;;;;;;;0.82;90.68;96613.84;5049964;28;21103;-69
2021/01/27 11:15:16;;;;;;;4.30;3.40;;;;;;;0.80;90.84;96610.59;5051300;28;20193;-70
2021/01/27 11:17:42;;;;;;;4.70;3.50;;;;;;;0.89;90.63;96615.72;5048799;28;20201;-69
2021/01/27 11:20:08;;;;;;;5.13;3.80;;;;;;;0.90;90.06;96610.38;5050695;28;20182;-69
2021/01/27 11:22:33;;;;;;;3.83;3.23;;;;;;;0.91;90.10;96606.03;5050665;28;20190;-70
2021/01/27 11:24:59;;;;;;;4.10;3.57;;;;;;;0.89;90.15;96608.81;5050926;28;20193;-69
2021/01/27 11:27:24;;;;;;;4.67;3.27;;;;;;;0.80;90.45;96608.03;5049751;28;20269;-69
2021/01/27 11:29:50;;;;;;;4.83;3.83;;;;;;;0.95;90.09;96605.50;5050266;28;20185;-70
2021/01/27 11:32:16;;;;;;;4.37;3.23;;;;;;;0.83;91.11;96605.13;5033234;28;20236;-70
2021/01/27 11:34:41;;;;;;;3.67;3.00;;;;;;;1.01;89.54;96598.88;5049631;28;20222;-70
2021/01/27 11:37:08;;;;;;;4.97;3.40;;;;;;;1.02;90.93;96606.44;5050505;28;20268;-74
2021/01/27 11:39:34;;;;;;;4.10;3.30;;;;;;;1.01;90.09;96597.09;5050375;28;20646;-69
2021/01/27 11:42:00;;;;;;;3.80;3.00;;;;;;;1.00;90.00;96592.94;5050536;28;20188;-69
2021/01/27 11:44:25;;;;;;;3.53;3.23;;;;;;;1.22;89.40;96588.72;5050299;28;20198;-69
2021/01/27 11:46:51;;;;;;;6.73;3.07;;;;;;;1.26;89.86;96577.09;5049482;28;20759;-69
2021/01/27 11:49:16;;;;;;;4.40;3.00;;;;;;;1.47;88.34;96576.41;5051155;28;20212;-70
2021/01/27 11:51:41;;;;;;;2.90;2.70;;;;;;;1.51;88.22;96572.50;5049745;28;20288;-70
2021/01/27 11:54:07;;;;;;;2.90;2.53;;;;;;;1.53;87.77;96567.97;5050921;28;20181;-70
2021/01/27 11:56:32;;;;;;;4.37;3.40;;;;;;;1.57;87.68;96557.09;5049993;28;20188;-71
2021/01/27 11:58:58;;;;;;;3.77;3.13;;;;;;;1.55;86.89;96558.28;5050301;28;20177;-71
2021/01/27 12:01:28;;;;;;;3.57;3.27;;;;;;;1.56;87.41;96554.72;5050717;28;20643;-71
2021/01/27 12:03:53;;;;;;;3.73;3.43;;;;;;;1.48;86.70;96553.00;5049309;28;20295;-71
2021/01/27 12:06:19;;;;;;;5.17;3.47;;;;;;;1.55;87.14;96547.94;5050651;28;20615;-71